Time;durP1;ratioP1;P1;durP2;ratioP2;P2;SDS_P1;SDS_P2;PMS_P1;PMS_P2;Temp;Humidity;BMP_temperature;BMP_pressure;BME280_temperature;BME280_humidity;BME280_pressure;Samples;Min_cycle;Max_cycle;Signal;HPM_P1;HPM_P2
2022/01/13 00:02:28;;;;;;;45.03;13.85;;;6.10;99.90;;;;;;5094845;27;20039;-83
2022/01/13 00:04:54;;;;;;;40.90;13.35;;;4.80;99.90;;;;;;5095380;27;20120;-83
2022/01/13 00:07:20;;;;;;;40.53;13.10;;;6.10;99.90;;;;;;5111350;27;20051;-83
2022/01/13 00:09:46;;;;;;;42.10;12.43;;;6.10;99.90;;;;;;5096083;27;20474;-83
2022/01/13 00:12:13;;;;;;;33.33;13.48;;;7.50;99.90;;;;;;5093171;27;20043;-83
2022/01/13 00:14:53;;;;;;;40.70;12.45;;;6.10;99.90;;;;;;5096107;27;20061;-83
2022/01/13 00:20:10;;;;;;;42.38;12.82;;;6.50;99.90;;;;;;5111625;27;20066;-83
2022/01/13 00:25:03;;;;;;;44.70;10.80;;;6.00;99.90;;;;;;5111054;27;20035;-83
2022/01/13 00:27:30;;;;;;;41.78;10.60;;;6.00;99.90;;;;;;5095157;27;20047;-83
2022/01/13 00:29:59;;;;;;;32.97;10.65;;;6.00;99.90;;;;;;5111257;27;20047;-84
2022/01/13 00:32:28;;;;;;;35.88;11.52;;;6.20;99.90;;;;;;5078297;27;20130;-83
2022/01/13 00:34:54;;;;;;;32.80;10.57;;;6.00;99.90;;;;;;5112449;27;20043;-83
2022/01/13 00:37:20;;;;;;;29.30;10.60;;;5.90;99.90;;;;;;5110297;27;20494;-83
2022/01/13 00:39:46;;;;;;;37.72;11.25;;;6.90;99.90;;;;;;5112494;27;20047;-83
2022/01/13 00:42:11;;;;;;;34.90;11.85;;;6.20;99.90;;;;;;5093202;27;20567;-83
2022/01/13 00:44:38;;;;;;;32.45;10.95;;;5.90;99.90;;;;;;5111709;27;20066;-83
2022/01/13 00:47:08;;;;;;;31.30;10.93;;;7.90;99.90;;;;;;5093821;27;20042;-83
2022/01/13 00:49:34;;;;;;;32.53;11.70;;;5.80;99.90;;;;;;5111761;27;20043;-84
2022/01/13 00:52:00;;;;;;;31.33;11.38;;;5.80;99.90;;;;;;5111779;27;20387;-83
2022/01/13 00:54:26;;;;;;;41.17;11.90;;;5.80;99.90;;;;;;5093105;27;20134;-83
2022/01/13 00:56:52;;;;;;;30.40;10.75;;;5.80;99.90;;;;;;5095337;27;20043;-82
2022/01/13 00:59:17;;;;;;;33.67;10.10;;;5.80;99.90;;;;;;5092939;27;20047;-83
2022/01/13 01:01:49;;;;;;;24.27;10.10;;;5.70;99.90;;;;;;5094418;27;20444;-83
2022/01/13 01:04:16;;;;;;;31.40;9.52;;;4.80;99.90;;;;;;5093596;27;20047;-83
2022/01/13 01:06:42;;;;;;;45.97;9.70;;;5.70;99.90;;;;;;5110980;27;20047;-83
2022/01/13 01:09:14;;;;;;;30.38;10.18;;;6.50;99.90;;;;;;5094372;27;20054;-83
2022/01/13 01:11:42;;;;;;;39.22;9.45;;;5.70;99.90;;;;;;5093080;27;20402;-83
2022/01/13 01:14:08;;;;;;;27.65;9.55;;;5.70;99.90;;;;;;5111468;27;20046;-83
2022/01/13 01:16:36;;;;;;;37.38;10.88;;;5.60;99.90;;;;;;5109932;27;20396;-83
2022/01/13 01:19:06;;;;;;;33.08;9.93;;;5.70;99.90;;;;;;5093975;27;20032;-84
2022/01/13 01:26:53;;;;;;;31.88;10.52;;;5.60;99.90;;;;;;5096347;27;20043;-83
2022/01/13 01:29:25;;;;;;;56.13;11.95;;;5.60;99.90;;;;;;5109529;27;20047;-83
2022/01/13 01:31:54;;;;;;;30.00;9.70;;;5.70;99.90;;;;;;5110586;27;20047;-83
2022/01/13 01:37:14;;;;;;;36.35;11.45;;;6.10;99.90;;;;;;5109461;27;20238;-83
2022/01/13 01:39:41;;;;;;;41.15;11.93;;;5.70;99.90;;;;;;5094969;27;20055;-83
2022/01/13 01:42:07;;;;;;;38.85;11.13;;;5.60;99.90;;;;;;5092334;27;20119;-83
2022/01/13 01:44:37;;;;;;;45.38;11.02;;;5.60;99.90;;;;;;5093682;27;20518;-83
2022/01/13 01:47:03;;;;;;;39.05;11.82;;;6.20;99.90;;;;;;5109660;27;20076;-83
2022/01/13 01:49:32;;;;;;;40.47;10.60;;;5.60;99.90;;;;;;5092885;27;20057;-83
2022/01/13 01:52:00;;;;;;;33.88;11.57;;;7.20;99.90;;;;;;5111031;27;20043;-83
2022/01/13 01:54:27;;;;;;;46.63;12.13;;;5.60;99.90;;;;;;5091831;27;20511;-83
2022/01/13 01:56:53;;;;;;;46.05;13.20;;;5.60;99.90;;;;;;5094102;27;20368;-83
2022/01/13 01:59:23;;;;;;;46.30;13.32;;;7.00;99.90;;;;;;5091831;27;20047;-84
2022/01/13 02:01:50;;;;;;;37.30;12.77;;;7.10;99.90;;;;;;5093355;27;20050;-83
2022/01/13 02:04:17;;;;;;;51.72;12.90;;;5.60;99.90;;;;;;5109835;27;20046;-83
2022/01/13 02:06:44;;;;;;;52.22;14.25;;;5.80;99.90;;;;;;5075931;27;20425;-83
2022/01/13 02:09:13;;;;;;;45.22;14.18;;;5.60;99.90;;;;;;5110870;27;20058;-83
2022/01/13 02:11:44;;;;;;;46.83;13.05;;;5.60;99.90;;;;;;5108814;27;20147;-83
2022/01/13 02:14:35;;;;;;;49.60;12.25;;;5.60;99.90;;;;;;5110808;27;20406;-83
2022/01/13 02:17:03;;;;;;;42.90;12.93;;;6.90;99.90;;;;;;5108891;27;20197;-83
2022/01/13 02:19:30;;;;;;;48.10;12.75;;;6.40;99.90;;;;;;5092376;27;20474;-83
2022/01/13 02:21:56;;;;;;;44.03;12.70;;;5.50;99.90;;;;;;5110336;28;20054;-83
2022/01/13 02:24:22;;;;;;;50.53;13.27;;;7.10;99.90;;;;;;5108672;28;20100;-83
2022/01/13 02:26:48;;;;;;;49.72;13.20;;;7.40;99.90;;;;;;5110290;28;20047;-83
2022/01/13 02:29:13;;;;;;;50.08;13.07;;;7.10;99.90;;;;;;5074708;27;20088;-83
2022/01/13 02:31:39;;;;;;;43.22;13.05;;;6.80;99.90;;;;;;5076501;28;20078;-83
2022/01/13 02:34:05;;;;;;;39.83;12.48;;;5.60;99.90;;;;;;5110104;27;20447;-83
2022/01/13 02:36:32;;;;;;;31.95;12.05;;;5.50;99.90;;;;;;5098983;27;20453;-83
2022/01/13 02:39:00;;;;;;;45.17;13.30;;;5.60;99.90;;;;;;5082932;27;20086;-83
2022/01/13 02:41:26;;;;;;;39.00;13.50;;;5.60;99.90;;;;;;5097584;27;20111;-83
2022/01/13 02:43:53;;;;;;;41.88;12.98;;;5.60;99.90;;;;;;5100298;27;20028;-83
2022/01/13 02:47:32;;;;;;;38.13;12.32;;;5.90;99.90;;;;;;5115190;27;20050;-83
2022/01/13 02:49:14;;;;;;;41.15;12.93;;;5.60;99.90;;;;;;5104974;27;20096;-83
2022/01/13 02:51:42;;;;;;;43.15;12.50;;;5.60;99.90;;;;;;5116719;27;20391;-83
2022/01/13 02:54:08;;;;;;;42.10;13.25;;;5.60;99.90;;;;;;5114614;27;20164;-84
2022/01/13 02:56:35;;;;;;;52.03;13.45;;;5.60;99.90;;;;;;5117096;27;20119;-83
2022/01/13 02:59:01;;;;;;;40.40;12.93;;;5.60;99.90;;;;;;5098030;27;20043;-83
2022/01/13 03:01:27;;;;;;;43.72;13.73;;;5.60;99.90;;;;;;5099558;27;20049;-83
2022/01/13 03:03:53;;;;;;;42.55;13.35;;;5.60;99.90;;;;;;5081963;27;20043;-83
2022/01/13 03:06:35;;;;;;;53.22;13.77;;;5.70;99.90;;;;;;5116056;27;20133;-83
2022/01/13 03:09:06;;;;;;;44.45;13.45;;;5.70;99.90;;;;;;5117000;27;20123;-83
2022/01/13 03:11:36;;;;;;;42.92;12.18;;;5.70;99.90;;;;;;5114638;27;20092;-83
2022/01/13 03:14:05;;;;;;;35.33;11.60;;;5.70;99.90;;;;;;5116585;27;20050;-83
2022/01/13 03:16:31;;;;;;;52.75;13.95;;;5.70;99.90;;;;;;5115464;27;20429;-83
2022/01/13 03:18:57;;;;;;;46.50;12.65;;;5.70;99.90;;;;;;5082235;27;20153;-83
2022/01/13 03:21:23;;;;;;;40.65;12.15;;;6.50;99.90;;;;;;5115850;27;20047;-83
2022/01/13 03:23:50;;;;;;;38.95;11.85;;;6.10;99.90;;;;;;5081799;27;20122;-83
2022/01/13 03:26:16;;;;;;;42.63;12.98;;;5.80;99.90;;;;;;5099638;27;20047;-83
2022/01/13 03:28:50;;;;;;;46.47;12.43;;;5.80;99.90;;;;;;5114415;27;20046;-83
2022/01/13 03:31:18;;;;;;;33.65;10.80;;;5.80;99.90;;;;;;5101043;27;20517;-83
2022/01/13 03:33:44;;;;;;;36.90;10.20;;;5.90;99.90;;;;;;5114791;27;20085;-83
2022/01/13 03:36:10;;;;;;;54.03;12.18;;;5.80;99.90;;;;;;5098900;27;20070;-83
2022/01/13 03:38:36;;;;;;;36.92;11.52;;;5.90;99.90;;;;;;5115957;27;20046;-83
2022/01/13 03:41:03;;;;;;;44.00;12.43;;;5.80;99.90;;;;;;5114561;27;20043;-83
2022/01/13 03:43:29;;;;;;;39.20;12.65;;;5.80;99.90;;;;;;5099492;27;20130;-83
2022/01/13 03:45:55;;;;;;;38.42;11.18;;;5.80;99.90;;;;;;5095560;27;20054;-83
2022/01/13 03:48:21;;;;;;;38.80;12.70;;;5.80;99.90;;;;;;5095676;27;20043;-83
2022/01/13 03:50:47;;;;;;;43.90;12.52;;;6.80;99.90;;;;;;5111445;27;20035;-83
2022/01/13 03:53:28;;;;;;;40.92;12.35;;;5.80;99.90;;;;;;5130915;27;20165;-83
2022/01/13 03:56:31;;;;;;;44.60;11.93;;;5.80;99.90;;;;;;5113226;27;20092;-83
2022/01/13 03:59:30;;;;;;;58.80;13.18;;;5.80;99.90;;;;;;5111087;27;20047;-83
2022/01/13 04:02:12;;;;;;;39.40;12.98;;;5.70;99.90;;;;;;5095629;27;20043;-83
2022/01/13 04:04:43;;;;;;;47.33;13.13;;;6.00;99.90;;;;;;5096346;27;20099;-83
2022/01/13 04:07:21;;;;;;;34.63;13.02;;;5.70;99.90;;;;;;5110889;27;20066;-83
2022/01/13 04:09:47;;;;;;;39.40;11.82;;;5.70;99.90;;;;;;5095407;27;20047;-83
2022/01/13 04:12:14;;;;;;;44.53;12.02;;;5.60;99.90;;;;;;5094576;27;20047;-83
2022/01/13 04:17:11;;;;;;;36.55;12.80;;;5.60;99.90;;;;;;5112334;27;20134;-83
2022/01/13 04:19:38;;;;;;;40.95;11.93;;;5.70;99.90;;;;;;5093869;27;20066;-83
2022/01/13 04:22:04;;;;;;;42.63;12.40;;;5.60;99.90;;;;;;5095584;27;20052;-83
2022/01/13 04:24:30;;;;;;;39.35;11.25;;;5.90;99.90;;;;;;5077169;27;20352;-83
2022/01/13 04:26:57;;;;;;;38.45;11.88;;;5.60;99.90;;;;;;5112306;27;20097;-83
2022/01/13 04:29:35;;;;;;;37.38;12.35;;;6.80;99.90;;;;;;5076881;27;20047;-83
2022/01/13 04:32:00;;;;;;;45.20;13.57;;;6.60;99.90;;;;;;5094191;27;20446;-83
2022/01/13 04:34:26;;;;;;;52.75;12.23;;;5.60;99.90;;;;;;5094948;27;20046;-83
2022/01/13 04:36:58;;;;;;;47.65;11.38;;;5.80;99.90;;;;;;5110286;27;20053;-83
2022/01/13 04:39:25;;;;;;;56.72;13.38;;;5.60;99.90;;;;;;5095094;27;20059;-83
2022/01/13 04:41:52;;;;;;;47.78;12.75;;;5.60;99.90;;;;;;5093242;27;20047;-83
2022/01/13 04:44:20;;;;;;;41.88;11.80;;;5.60;99.90;;;;;;5095045;27;20398;-82
2022/01/13 04:46:48;;;;;;;51.08;13.50;;;5.60;99.90;;;;;;5094347;27;20039;-83
2022/01/13 04:49:16;;;;;;;32.88;12.27;;;5.70;99.90;;;;;;5110704;27;20125;-83
2022/01/13 04:51:42;;;;;;;44.55;12.55;;;5.70;99.90;;;;;;5078485;27;20035;-83
2022/01/13 04:54:08;;;;;;;54.40;12.43;;;5.70;99.90;;;;;;5109569;27;20078;-83
2022/01/13 04:59:15;;;;;;;46.30;12.07;;;7.00;99.90;;;;;;5094680;27;20129;-83
2022/01/13 05:01:41;;;;;;;42.20;12.23;;;5.70;99.90;;;;;;5094242;27;20134;-83
2022/01/13 05:04:07;;;;;;;38.25;11.93;;;5.70;99.90;;;;;;5094336;27;20149;-83
2022/01/13 05:06:33;;;;;;;40.08;12.68;;;6.00;99.90;;;;;;5076500;27;20043;-83
2022/01/13 05:08:59;;;;;;;49.15;13.52;;;7.10;99.90;;;;;;5111793;27;20502;-83
2022/01/13 05:11:24;;;;;;;50.63;12.88;;;5.80;99.90;;;;;;5109536;27;20054;-83
2022/01/13 05:13:50;;;;;;;41.65;13.05;;;5.80;99.90;;;;;;5111310;27;20040;-83
2022/01/13 05:16:22;;;;;;;45.05;12.85;;;5.80;99.90;;;;;;5092929;27;20512;-83
2022/01/13 05:18:56;;;;;;;39.03;11.43;;;5.80;99.90;;;;;;5111083;27;20420;-83
2022/01/13 05:21:37;;;;;;;52.28;12.48;;;5.80;99.90;;;;;;5111539;27;20383;-84
2022/01/13 05:24:04;;;;;;;53.42;13.07;;;5.80;99.90;;;;;;5109517;27;20440;-83
2022/01/13 05:26:30;;;;;;;49.63;13.07;;;5.80;99.90;;;;;;5111735;27;20474;-83
2022/01/13 05:28:56;;;;;;;45.30;12.90;;;5.80;99.90;;;;;;5109741;27;20099;-83
2022/01/13 05:31:22;;;;;;;41.92;12.10;;;4.50;99.90;;;;;;5094313;27;20393;-83
2022/01/13 05:33:48;;;;;;;63.28;13.50;;;5.80;99.90;;;;;;5110585;27;20051;-84
2022/01/13 05:36:14;;;;;;;56.15;14.43;;;5.80;99.90;;;;;;5092878;27;20403;-83
2022/01/13 05:38:42;;;;;;;48.15;12.68;;;5.80;99.90;;;;;;5094090;27;20039;-83
2022/01/13 05:41:08;;;;;;;54.95;14.20;;;5.80;99.90;;;;;;5075060;27;20062;-83
2022/01/13 05:43:34;;;;;;;41.17;13.32;;;6.70;99.90;;;;;;5110954;27;20071;-83
2022/01/13 05:45:59;;;;;;;50.80;13.20;;;5.80;99.90;;;;;;5109059;27;20135;-83
2022/01/13 05:48:26;;;;;;;49.70;13.35;;;7.30;99.90;;;;;;5094016;27;20196;-82
2022/01/13 05:50:51;;;;;;;51.42;12.10;;;6.40;99.90;;;;;;5109846;27;20046;-81
2022/01/13 05:53:17;;;;;;;58.63;13.52;;;5.80;99.90;;;;;;5092793;27;20426;-82
2022/01/13 05:55:43;;;;;;;47.95;13.18;;;5.80;99.90;;;;;;5110963;27;20043;-83
2022/01/13 05:58:09;;;;;;;55.50;15.27;;;5.80;99.90;;;;;;5092224;27;20493;-83
2022/01/13 06:00:36;;;;;;;53.70;14.10;;;5.90;99.90;;;;;;5110828;27;20569;-84
2022/01/13 06:03:02;;;;;;;43.65;13.20;;;5.80;99.90;;;;;;5108699;27;20051;-84
2022/01/13 06:05:28;;;;;;;48.33;13.75;;;5.90;99.90;;;;;;5093969;27;20082;-82
2022/01/13 06:07:54;;;;;;;52.90;13.13;;;5.90;99.90;;;;;;5092312;27;20529;-82
2022/01/13 06:10:20;;;;;;;68.97;14.45;;;6.10;99.90;;;;;;5075672;27;20138;-82
2022/01/13 06:12:51;;;;;;;58.15;14.55;;;5.90;99.90;;;;;;5110462;27;20117;-83
2022/01/13 06:15:19;;;;;;;49.88;12.73;;;5.90;99.90;;;;;;5108829;27;20450;-83
2022/01/13 06:17:48;;;;;;;49.03;13.90;;;7.70;99.90;;;;;;5110727;27;20393;-82
2022/01/13 06:20:16;;;;;;;75.95;13.95;;;5.90;99.90;;;;;;5127186;27;20072;-86
2022/01/13 06:22:43;;;;;;;63.70;13.80;;;5.90;99.90;;;;;;5128970;27;20039;-84
2022/01/13 06:25:10;;;;;;;55.13;14.77;;;6.20;99.90;;;;;;5128078;27;20092;-83
2022/01/13 06:27:36;;;;;;;60.33;15.63;;;6.00;99.90;;;;;;5092262;28;20043;-82
2022/01/13 06:30:05;;;;;;;65.85;15.48;;;6.00;99.90;;;;;;5129049;27;20054;-83
2022/01/13 06:32:30;;;;;;;59.22;15.63;;;6.00;99.90;;;;;;5127142;27;20371;-83
2022/01/13 06:34:56;;;;;;;65.55;16.35;;;6.10;99.90;;;;;;5110600;28;20069;-83
2022/01/13 06:37:22;;;;;;;47.45;15.20;;;6.10;99.90;;;;;;5127015;28;20043;-81
2022/01/13 06:39:48;;;;;;;59.90;14.30;;;6.20;99.90;;;;;;5128139;28;20051;-82
2022/01/13 06:42:13;;;;;;;57.30;15.75;;;6.20;99.90;;;;;;5109067;28;20130;-80
2022/01/13 06:44:39;;;;;;;56.38;15.52;;;6.20;99.90;;;;;;5109435;28;20047;-82
2022/01/13 06:47:06;;;;;;;53.75;14.50;;;6.20;99.90;;;;;;5127948;28;20092;-81
2022/01/13 06:49:33;;;;;;;63.20;14.27;;;6.20;99.90;;;;;;5088112;28;20079;-81
2022/01/13 06:51:59;;;;;;;72.68;17.90;;;6.20;99.90;;;;;;5109484;28;20046;-81
2022/01/13 06:54:25;;;;;;;76.30;17.63;;;6.20;99.90;;;;;;5073706;28;20047;-81
2022/01/13 06:56:52;;;;;;;57.83;15.93;;;6.20;99.90;;;;;;5074374;28;20406;-82
2022/01/13 06:59:19;;;;;;;58.60;16.77;;;7.60;99.90;;;;;;5106759;28;20050;-80
2022/01/13 07:01:48;;;;;;;59.47;16.52;;;7.70;99.90;;;;;;5092028;28;20448;-81
2022/01/13 07:04:47;;;;;;;61.95;15.93;;;6.20;99.90;;;;;;5108533;28;20043;-79
2022/01/13 07:07:12;;;;;;;69.35;16.73;;;6.50;99.90;;;;;;5091067;28;20130;-80
2022/01/13 07:09:38;;;;;;;70.88;15.75;;;6.20;99.90;;;;;;5093373;28;20090;-78
2022/01/13 07:12:04;;;;;;;69.45;16.00;;;6.30;99.90;;;;;;5108109;28;20043;-78
2022/01/13 07:14:30;;;;;;;63.75;15.93;;;6.30;99.90;;;;;;5093159;28;20046;-78
2022/01/13 07:16:56;;;;;;;58.15;15.95;;;6.30;99.90;;;;;;5108538;28;20422;-78
2022/01/13 07:19:22;;;;;;;69.88;17.23;;;7.30;99.90;;;;;;5091913;28;20465;-78
2022/01/13 07:21:48;;;;;;;71.93;16.23;;;6.30;99.90;;;;;;5094499;27;20525;-78
2022/01/13 07:24:14;;;;;;;63.00;17.40;;;8.10;99.90;;;;;;5111704;27;20043;-78
2022/01/13 07:26:40;;;;;;;60.67;17.52;;;7.90;99.90;;;;;;5113345;27;20129;-78
2022/01/13 07:29:07;;;;;;;64.07;17.45;;;6.30;99.90;;;;;;5091525;27;20134;-79
2022/01/13 07:31:37;;;;;;;54.78;16.52;;;6.40;99.90;;;;;;5095552;27;20039;-78
2022/01/13 07:34:05;;;;;;;60.42;17.17;;;6.30;99.90;;;;;;5094728;27;20096;-80
2022/01/13 07:36:31;;;;;;;67.72;17.83;;;6.80;99.90;;;;;;5094596;27;20043;-80
2022/01/13 07:38:57;;;;;;;68.28;17.70;;;6.40;99.90;;;;;;5095833;27;20043;-82
2022/01/13 07:41:23;;;;;;;49.30;17.45;;;6.80;99.90;;;;;;5093104;27;20070;-82
2022/01/13 07:43:53;;;;;;;58.85;17.80;;;6.40;99.90;;;;;;5113452;27;20042;-83
2022/01/13 07:46:21;;;;;;;72.55;18.00;;;7.20;99.90;;;;;;5093632;27;20047;-82
2022/01/13 07:48:46;;;;;;;55.60;17.77;;;7.70;99.90;;;;;;5113098;27;20035;-82
2022/01/13 07:51:12;;;;;;;63.90;18.20;;;6.40;99.90;;;;;;5112484;27;20050;-82
2022/01/13 07:53:38;;;;;;;53.60;16.80;;;6.50;99.90;;;;;;5094765;27;20047;-82
2022/01/13 07:56:04;;;;;;;70.20;18.27;;;6.50;99.90;;;;;;5096203;27;20039;-82
2022/01/13 07:58:30;;;;;;;60.17;17.70;;;6.50;99.90;;;;;;5094215;27;20092;-81
2022/01/13 08:00:56;;;;;;;67.45;17.05;;;6.50;99.90;;;;;;5112837;27;20039;-82
2022/01/13 08:03:21;;;;;;;61.05;17.38;;;7.20;99.90;;;;;;5093647;27;20051;-81
2022/01/13 08:05:47;;;;;;;63.28;17.80;;;7.30;99.90;;;;;;5131515;27;20046;-82
2022/01/13 08:08:13;;;;;;;53.83;16.40;;;6.50;99.90;;;;;;5129929;27;20096;-82
2022/01/13 08:10:38;;;;;;;71.43;18.30;;;6.50;99.90;;;;;;5128707;27;20039;-82
2022/01/13 08:13:04;;;;;;;72.55;18.98;;;6.50;99.90;;;;;;5094995;27;20595;-82
2022/01/13 08:15:30;;;;;;;63.78;17.13;;;6.50;99.90;;;;;;5111277;27;20047;-81
2022/01/13 08:20:40;;;;;;;59.00;16.20;;;7.10;99.90;;;;;;5110324;27;20100;-81
2022/01/13 08:23:06;;;;;;;60.95;15.75;;;6.50;99.90;;;;;;5112245;27;20494;-81
2022/01/13 08:25:32;;;;;;;66.18;19.13;;;8.50;99.90;;;;;;5111523;27;20039;-82
2022/01/13 08:27:58;;;;;;;54.15;17.85;;;6.50;99.90;;;;;;5130101;27;20126;-82
2022/01/13 08:30:24;;;;;;;61.17;17.25;;;6.60;99.90;;;;;;5112227;27;20121;-82
2022/01/13 08:32:50;;;;;;;37.00;15.43;;;7.00;99.90;;;;;;5127187;27;20118;-82
2022/01/13 08:35:15;;;;;;;55.28;15.52;;;7.70;99.90;;;;;;5094497;27;20092;-83
2022/01/13 08:37:42;;;;;;;53.47;17.25;;;6.70;99.90;;;;;;5091845;27;20046;-82
2022/01/13 08:40:11;;;;;;;56.22;15.75;;;6.50;99.90;;;;;;5095068;27;20059;-83
2022/01/13 08:42:37;;;;;;;48.03;14.48;;;6.50;99.90;;;;;;5110887;27;20058;-83
2022/01/13 08:45:05;;;;;;;63.80;17.88;;;6.60;99.90;;;;;;5110686;27;20047;-83
2022/01/13 08:47:31;;;;;;;57.45;16.75;;;6.50;99.90;;;;;;5095289;27;20049;-83
2022/01/13 08:49:57;;;;;;;48.13;16.48;;;6.60;99.90;;;;;;5092688;27;20457;-84
2022/01/13 08:52:23;;;;;;;46.70;16.25;;;7.70;99.90;;;;;;5112036;27;20054;-83
2022/01/13 08:54:50;;;;;;;49.58;16.85;;;6.50;99.90;;;;;;5076303;27;20611;-82
2022/01/13 08:57:17;;;;;;;49.95;17.30;;;6.50;99.90;;;;;;5111633;27;20043;-83
2022/01/13 08:59:43;;;;;;;47.55;15.77;;;6.60;99.90;;;;;;5110827;27;20040;-83
2022/01/13 09:02:09;;;;;;;46.95;15.18;;;6.60;99.90;;;;;;5110362;27;20091;-83
2022/01/13 09:04:35;;;;;;;47.75;16.45;;;6.60;99.90;;;;;;5112107;27;20103;-83
2022/01/13 09:07:01;;;;;;;43.60;15.85;;;6.60;99.90;;;;;;5092535;27;20130;-83
2022/01/13 09:09:26;;;;;;;53.63;17.42;;;6.60;99.90;;;;;;5078439;27;20134;-82
2022/01/13 09:11:52;;;;;;;48.85;16.92;;;6.60;99.90;;;;;;5109450;27;20039;-84
2022/01/13 09:14:24;;;;;;;47.00;15.85;;;6.60;99.90;;;;;;5110600;27;20043;-82
2022/01/13 09:16:50;;;;;;;39.72;16.20;;;6.60;99.90;;;;;;5110402;27;20053;-83
2022/01/13 09:19:17;;;;;;;46.65;15.77;;;7.70;99.90;;;;;;5128948;27;20122;-83
2022/01/13 09:21:45;;;;;;;49.58;16.90;;;6.60;99.90;;;;;;5111795;27;20047;-83
2022/01/13 09:24:14;;;;;;;46.75;15.80;;;6.60;99.90;;;;;;5108954;27;20047;-83
2022/01/13 09:26:41;;;;;;;43.55;16.48;;;6.80;99.90;;;;;;5094360;27;20039;-83
2022/01/13 09:29:08;;;;;;;48.78;15.43;;;6.60;99.90;;;;;;5127814;27;20139;-83
2022/01/13 09:31:35;;;;;;;45.42;16.92;;;6.90;99.90;;;;;;5129532;27;20039;-83
2022/01/13 09:34:02;;;;;;;53.83;17.38;;;6.70;99.90;;;;;;5110451;27;20575;-83
2022/01/13 09:36:32;;;;;;;51.85;18.02;;;6.70;99.90;;;;;;5109955;27;20051;-83
2022/01/13 09:39:01;;;;;;;40.97;16.65;;;6.80;99.90;;;;;;5111317;27;20043;-83
2022/01/13 09:41:30;;;;;;;42.60;16.38;;;6.70;99.90;;;;;;5075062;27;20104;-83
2022/01/13 09:43:57;;;;;;;50.38;17.20;;;7.50;99.90;;;;;;5093580;27;20581;-83
2022/01/13 09:46:26;;;;;;;46.92;17.08;;;6.70;99.90;;;;;;5109607;27;20396;-83
2022/01/13 09:48:53;;;;;;;42.03;14.90;;;6.70;99.90;;;;;;5093618;27;20490;-83
2022/01/13 09:51:23;;;;;;;45.15;15.95;;;7.00;99.90;;;;;;5110589;27;20057;-84
2022/01/13 09:53:49;;;;;;;51.05;15.63;;;6.70;99.90;;;;;;5091979;27;20051;-83
2022/01/13 09:56:15;;;;;;;44.53;15.52;;;6.90;99.90;;;;;;5094384;27;20035;-84
2022/01/13 09:58:44;;;;;;;48.55;16.15;;;6.70;99.90;;;;;;5091849;27;20046;-83
2022/01/13 10:01:12;;;;;;;46.47;15.93;;;6.60;99.90;;;;;;5111021;27;20054;-83
2022/01/13 10:03:38;;;;;;;47.33;16.60;;;6.70;99.90;;;;;;5092748;27;20406;-83
2022/01/13 10:06:20;;;;;;;51.53;17.85;;;6.60;99.90;;;;;;5109742;27;20577;-83
2022/01/13 10:08:49;;;;;;;38.10;16.17;;;6.80;99.90;;;;;;5111067;27;20035;-83
2022/01/13 10:11:42;;;;;;;55.63;17.80;;;6.60;99.90;;;;;;5108237;28;20043;-82
2022/01/13 10:16:54;;;;;;;40.95;16.67;;;6.70;99.90;;;;;;5128540;27;20413;-83
2022/01/13 10:19:42;;;;;;;48.58;17.58;;;6.70;99.90;;;;;;5108827;27;20047;-83
2022/01/13 10:22:11;;;;;;;52.78;18.27;;;6.70;99.90;;;;;;5094107;27;20046;-83
2022/01/13 10:24:39;;;;;;;42.30;18.10;;;6.70;99.90;;;;;;5091044;28;20120;-83
2022/01/13 10:27:06;;;;;;;47.40;17.50;;;6.70;99.90;;;;;;5110758;27;20043;-83
2022/01/13 10:29:56;;;;;;;51.22;18.83;;;6.70;99.90;;;;;;5109842;28;20065;-83
2022/01/13 10:32:25;;;;;;;50.08;17.27;;;6.80;99.90;;;;;;5108897;28;20536;-83
2022/01/13 10:35:00;;;;;;;44.17;18.27;;;6.80;99.90;;;;;;5110425;28;20043;-83
2022/01/13 10:37:33;;;;;;;48.08;17.35;;;6.80;99.90;;;;;;5108557;28;20043;-83
2022/01/13 10:40:10;;;;;;;;;;;6.80;99.90;;;;;;5093418;28;20066;-83
2022/01/13 10:45:26;;;;;;;39.67;18.83;;;6.90;99.90;;;;;;5108094;28;20134;-83
2022/01/13 10:48:09;;;;;;;47.25;17.42;;;7.60;99.90;;;;;;5110498;28;20047;-83
2022/01/13 10:50:37;;;;;;;40.60;18.05;;;6.80;99.90;;;;;;5126902;28;20090;-83
2022/01/13 10:53:09;;;;;;;39.83;18.85;;;6.90;99.90;;;;;;5109201;28;20039;-83
2022/01/13 10:55:39;;;;;;;41.03;19.08;;;6.90;99.90;;;;;;5094503;27;20051;-83
2022/01/13 10:58:05;;;;;;;48.40;18.63;;;6.90;99.90;;;;;;5111737;27;20043;-83
2022/01/13 11:00:34;;;;;;;47.80;17.65;;;6.90;99.90;;;;;;5114262;27;20100;-84
2022/01/13 11:03:03;;;;;;;41.28;18.73;;;6.90;99.90;;;;;;5094892;27;20038;-83
2022/01/13 11:05:32;;;;;;;44.72;18.98;;;7.00;99.90;;;;;;5113897;27;20085;-84
2022/01/13 11:08:01;;;;;;;41.53;17.90;;;6.90;99.90;;;;;;5113407;27;20051;-84
2022/01/13 11:10:27;;;;;;;52.25;19.90;;;6.90;99.90;;;;;;5112988;27;20035;-84
2022/01/13 11:12:57;;;;;;;46.47;18.85;;;6.90;99.90;;;;;;5096886;27;20063;-84
2022/01/13 11:15:24;;;;;;;49.22;18.15;;;6.90;99.90;;;;;;5111440;27;20051;-84
2022/01/13 11:17:53;;;;;;;42.08;18.85;;;6.90;99.90;;;;;;5097092;27;20062;-83
2022/01/13 11:20:19;;;;;;;37.55;17.77;;;7.10;99.90;;;;;;5111795;27;20054;-83
2022/01/13 11:22:50;;;;;;;46.03;18.85;;;6.90;99.90;;;;;;5079497;27;20031;-83
2022/01/13 11:25:19;;;;;;;50.40;18.27;;;7.50;99.90;;;;;;5113311;27;20233;-83
2022/01/13 11:27:46;;;;;;;41.58;18.00;;;7.50;99.90;;;;;;5112172;27;20047;-83
2022/01/13 11:30:17;;;;;;;52.42;18.42;;;8.80;99.90;;;;;;5096352;27;20139;-84
2022/01/13 11:32:45;;;;;;;42.15;18.35;;;7.00;99.90;;;;;;5110995;27;20065;-83
2022/01/13 11:35:32;;;;;;;44.10;17.42;;;7.00;99.90;;;;;;5096250;27;20042;-84
2022/01/13 11:38:02;;;;;;;43.22;18.08;;;7.00;99.90;;;;;;5111727;27;20047;-84
2022/01/13 11:40:28;;;;;;;52.17;18.23;;;7.10;99.90;;;;;;5110980;27;20559;-85
2022/01/13 11:42:55;;;;;;;39.58;17.65;;;7.10;99.90;;;;;;5095884;27;20129;-83
2022/01/13 11:45:22;;;;;;;39.58;17.83;;;7.10;99.90;;;;;;5093708;27;20122;-82
2022/01/13 11:47:51;;;;;;;36.17;17.95;;;7.60;99.90;;;;;;5113588;27;20432;-83
2022/01/13 11:50:30;;;;;;;44.83;18.40;;;7.20;99.90;;;;;;5110921;27;20058;-82
2022/01/13 11:52:57;;;;;;;47.28;19.80;;;7.20;99.90;;;;;;5095432;27;20047;-83
2022/01/13 11:55:33;;;;;;;47.25;19.10;;;7.20;99.90;;;;;;5095837;27;20043;-84
2022/01/13 11:58:22;;;;;;;40.85;17.08;;;8.30;99.90;;;;;;5110824;27;20046;-83
2022/01/13 12:00:51;;;;;;;39.90;18.80;;;7.20;99.90;;;;;;5113233;27;20406;-83
2022/01/13 12:03:25;;;;;;;36.67;17.23;;;7.30;99.90;;;;;;5094832;27;20046;-84
2022/01/13 12:05:52;;;;;;;35.97;17.02;;;7.20;99.90;;;;;;5112131;27;20091;-84
2022/01/13 12:08:56;;;;;;;32.70;17.73;;;7.20;99.90;;;;;;5112020;27;20086;-84
2022/01/13 12:11:38;;;;;;;44.05;17.20;;;7.20;99.90;;;;;;5029176;28;20053;-84
2022/01/13 12:14:22;;;;;;;31.45;16.55;;;7.20;99.90;;;;;;5106152;27;20493;-84
2022/01/13 12:17:25;;;;;;;40.60;16.95;;;7.20;99.90;;;;;;5112634;27;20046;-84
2022/01/13 12:19:59;;;;;;;34.13;16.23;;;7.20;99.90;;;;;;5093338;27;20049;-84
2022/01/13 12:22:43;;;;;;;28.33;15.60;;;7.20;99.90;;;;;;5112623;27;20047;-84
2022/01/13 12:25:17;;;;;;;40.78;17.23;;;7.70;99.90;;;;;;5095221;27;20043;-84
2022/01/13 12:27:51;;;;;;;36.20;16.15;;;7.20;99.90;;;;;;5110382;27;20039;-84
2022/01/13 12:30:20;;;;;;;28.35;15.57;;;7.30;99.90;;;;;;5095732;27;20048;-84
2022/01/13 12:32:53;;;;;;;30.45;15.40;;;7.30;99.90;;;;;;5110310;27;20047;-84
2022/01/13 12:35:22;;;;;;;;;;;7.30;99.90;;;;;;5112977;27;20035;-84
2022/01/13 12:38:15;;;;;;;40.45;15.93;;;7.30;99.90;;;;;;5111250;27;19980;-84
2022/01/13 12:41:23;;;;;;;32.47;15.80;;;7.30;99.90;;;;;;5093024;27;20074;-84
2022/01/13 12:46:19;;;;;;;48.15;15.52;;;7.40;99.90;;;;;;5110913;27;20073;-83
2022/01/13 12:48:48;;;;;;;37.75;14.85;;;7.40;99.90;;;;;;5111607;27;20043;-83
2022/01/13 12:51:16;;;;;;;34.25;15.38;;;7.40;99.90;;;;;;5112423;27;20122;-84
2022/01/13 12:53:43;;;;;;;38.60;15.93;;;7.50;99.90;;;;;;5109767;27;20089;-82
2022/01/13 12:56:18;;;;;;;35.17;15.55;;;7.50;99.90;;;;;;5094805;27;20039;-81
2022/01/13 12:58:54;;;;;;;33.67;15.15;;;7.60;99.90;;;;;;5091626;27;20057;-81
2022/01/13 13:01:27;;;;;;;35.40;14.73;;;7.60;99.90;;;;;;5093011;27;20463;-82
2022/01/13 13:04:04;;;;;;;;;;;7.70;99.90;;;;;;5111661;27;20491;-82
2022/01/13 13:06:33;;;;;;;26.30;13.63;;;7.70;99.90;;;;;;5090541;27;19966;-82
2022/01/13 13:09:28;;;;;;;39.42;14.63;;;7.70;99.90;;;;;;5109548;27;20061;-82
2022/01/13 13:11:59;;;;;;;37.58;14.75;;;7.80;99.90;;;;;;5092450;27;20047;-82
2022/01/13 13:17:38;;;;;;;25.23;14.30;;;9.60;99.90;;;;;;5080436;27;20047;-81
2022/01/13 13:20:06;;;;;;;30.30;13.50;;;7.90;99.90;;;;;;5108821;27;20050;-81
2022/01/13 13:22:48;;;;;;;31.55;13.15;;;7.90;99.90;;;;;;5094476;27;20134;-82